KALI/ALI METAR and TAF weather

Enter ICAO airport designator
Station Type Date Time Source
KALI METAR 2019/12/11 15:00 UTC NOAA

KALI 111500Z AUTO 02011KT 10SM OVC014 08/04 A3050 RMK AO2 T00830039


Station Type Date Time Source
KALI Decoded METAR 2019/12/11 15:00 UTC NOAA

ALICE INTERNATIONAL AIRPORT, TX, United States (KALI) 27-44N 098-01W 53M
Dec 11, 2019 - 10:00 AM EST / 2019.12.11 1500 UTC
Wind: from the NNE (020 degrees) at 13 MPH (11 KT):0
Visibility: 10 mile(s):0
Sky conditions: overcast
Temperature: 46.9 F (8.3 C)
Dew Point: 39.0 F (3.9 C)
Relative Humidity: 73%
Pressure (altimeter): 30.5 in. Hg (1032 hPa)
ob: KALI 111500Z AUTO 02011KT 10SM OVC014 08/04 A3050 RMK AO2 T00830039
cycle: 15

Station Type Date Time Source
KALI TAF 2019/12/11 12:22 UTC NOAA

TAF KALI 111120Z 1112/1212 01011KT P6SM OVC015
FM111600 02008KT P6SM SCT025
FM120700 VRB05KT P6SM SCT017 BKN035

Example: see airport list